createdAt,value
2019-02-17T00:01:19.061Z,35.33
2019-02-17T00:03:49.593Z,34.73
2019-02-17T00:06:20.138Z,30.10
2019-02-17T00:08:50.694Z,29.50
2019-02-17T00:11:21.264Z,28.35
2019-02-17T00:13:51.788Z,33.73
2019-02-17T00:16:22.318Z,32.87
2019-02-17T00:18:52.870Z,33.00
2019-02-17T00:21:26.456Z,34.83
2019-02-17T00:23:57.016Z,36.93
2019-02-17T00:26:27.621Z,31.90
2019-02-17T00:28:59.745Z,36.27
2019-02-17T00:31:30.591Z,29.27
2019-02-17T00:34:01.162Z,34.78
2019-02-17T00:36:31.683Z,35.07
2019-02-17T00:39:02.247Z,33.53
2019-02-17T00:41:32.775Z,34.83
2019-02-17T00:44:03.304Z,31.23
2019-02-17T00:46:33.811Z,37.47
2019-02-17T00:49:04.353Z,34.50
2019-02-17T00:51:37.190Z,33.57
2019-02-17T00:54:07.743Z,30.50
2019-02-17T00:56:38.295Z,36.10
2019-02-17T00:59:10.414Z,33.73
2019-02-17T01:01:41.301Z,29.40
2019-02-17T01:04:11.914Z,28.90
2019-02-17T01:06:42.871Z,30.13
2019-02-17T01:09:13.518Z,32.63
2019-02-17T01:11:44.190Z,31.67
2019-02-17T01:14:14.867Z,32.73
2019-02-17T01:16:45.690Z,34.93
2019-02-17T01:19:16.344Z,33.73
2019-02-17T01:21:47.060Z,30.10
2019-02-17T01:24:17.738Z,31.07
2019-02-17T01:26:48.653Z,36.60
2019-02-17T01:29:20.705Z,38.37
2019-02-17T01:31:51.536Z,39.00
2019-02-17T01:34:22.092Z,28.37
2019-02-17T01:36:55.403Z,28.60
2019-02-17T01:39:25.928Z,35.07
2019-02-17T01:41:56.479Z,39.00
2019-02-17T01:44:27.240Z,35.27
2019-02-17T01:46:57.780Z,34.37
2019-02-17T01:49:28.384Z,35.83
2019-02-17T01:51:58.901Z,38.10
2019-02-17T01:54:29.445Z,34.33
2019-02-17T01:57:00.011Z,34.50
2019-02-17T01:59:31.025Z,44.63
2019-02-17T02:02:01.720Z,37.97
2019-02-17T02:04:32.560Z,38.80
2019-02-17T02:07:03.211Z,36.37
2019-02-17T02:09:33.828Z,38.97
2019-02-17T02:12:04.545Z,43.55
2019-02-17T02:14:35.083Z,32.87
2019-02-17T02:17:05.696Z,39.13
2019-02-17T02:19:36.382Z,36.70
2019-02-17T02:22:07.020Z,36.77
2019-02-17T02:24:37.639Z,39.97
2019-02-17T02:27:08.224Z,45.73
2019-02-17T02:29:41.100Z,36.77
2019-02-17T02:32:10.896Z,42.63
2019-02-17T02:34:41.475Z,39.93
2019-02-17T02:37:12.011Z,37.57
2019-02-17T02:39:42.529Z,43.73
2019-02-17T02:42:13.110Z,33.77
2019-02-17T02:44:43.666Z,41.70
2019-02-17T02:47:14.240Z,43.00
2019-02-17T02:49:45.100Z,33.20
2019-02-17T02:52:15.629Z,35.60
2019-02-17T02:54:46.267Z,36.83
2019-02-17T02:57:16.866Z,39.67
2019-02-17T02:59:52.435Z,34.73
2019-02-17T03:02:19.907Z,35.60
2019-02-17T03:04:50.498Z,29.83
2019-02-17T03:07:22.223Z,35.77
2019-02-17T03:09:52.789Z,38.40
2019-02-17T03:12:23.348Z,35.87
2019-02-17T03:14:53.876Z,36.10
2019-02-17T03:17:24.494Z,40.03
2019-02-17T03:19:55.099Z,32.60
2019-02-17T03:22:26.071Z,31.63
2019-02-17T03:24:56.668Z,40.73
2019-02-17T03:27:30.898Z,39.50
2019-02-17T03:30:04.717Z,35.10
2019-02-17T03:32:33.713Z,29.87
2019-02-17T03:35:04.256Z,33.13
2019-02-17T03:37:34.831Z,39.10
2019-02-17T03:40:06.056Z,32.37
2019-02-17T03:42:36.618Z,31.87
2019-02-17T03:45:07.344Z,31.90
2019-02-17T03:47:37.892Z,29.03
2019-02-17T03:50:08.532Z,36.93
2019-02-17T03:52:39.103Z,32.93
2019-02-17T03:55:09.654Z,27.23
2019-02-17T03:57:40.166Z,31.20
2019-02-17T04:00:16.810Z,28.40
2019-02-17T04:02:45.059Z,26.00
2019-02-17T04:05:15.696Z,27.87
2019-02-17T04:07:46.259Z,31.17
2019-02-17T04:10:18.269Z,28.17
2019-02-17T04:12:49.635Z,32.83
2019-02-17T04:15:20.225Z,29.27
2019-02-17T04:17:50.844Z,32.97
2019-02-17T04:20:21.462Z,28.87
2019-02-17T04:22:52.060Z,38.10
2019-02-17T04:25:22.616Z,34.43
2019-02-17T04:27:53.171Z,36.53
2019-02-17T04:30:29.439Z,35.40
2019-02-17T04:32:56.135Z,33.63
2019-02-17T04:35:26.699Z,33.87
2019-02-17T04:37:57.255Z,34.60
2019-02-17T04:40:27.855Z,35.77
2019-02-17T04:42:58.421Z,42.97
2019-02-17T04:45:28.986Z,34.00
2019-02-17T04:47:59.531Z,37.43
2019-02-17T04:50:30.076Z,39.83
2019-02-17T04:53:00.636Z,33.40
2019-02-17T04:55:31.223Z,38.23
2019-02-17T04:58:01.770Z,41.63
2019-02-17T05:00:40.121Z,35.77
2019-02-17T05:03:07.312Z,38.23
2019-02-17T05:05:38.006Z,46.07
2019-02-17T05:08:08.612Z,35.27
2019-02-17T05:10:39.212Z,45.93
2019-02-17T05:13:09.798Z,41.93
2019-02-17T05:15:40.317Z,48.10
2019-02-17T05:18:10.853Z,42.83
2019-02-17T05:20:41.431Z,39.00
2019-02-17T05:23:12.139Z,47.30
2019-02-17T05:25:42.685Z,40.37
2019-02-17T05:28:13.252Z,44.43
2019-02-17T05:30:52.175Z,43.87
2019-02-17T05:33:18.610Z,51.67
2019-02-17T05:35:49.798Z,47.10
2019-02-17T05:38:20.362Z,60.53
2019-02-17T05:40:50.910Z,48.70
2019-02-17T05:43:21.635Z,55.60
2019-02-17T05:45:52.177Z,47.93
2019-02-17T05:48:22.696Z,60.97
2019-02-17T05:50:53.291Z,57.13
2019-02-17T05:53:23.824Z,47.80
2019-02-17T05:55:54.334Z,53.37
2019-02-17T05:58:24.876Z,50.47
2019-02-17T06:01:03.369Z,62.33
2019-02-17T06:03:27.586Z,50.10
2019-02-17T06:05:58.133Z,49.73
2019-02-17T06:08:28.788Z,51.27
2019-02-17T06:10:59.310Z,50.50
2019-02-17T06:13:29.872Z,60.33
2019-02-17T06:16:00.464Z,46.10
2019-02-17T06:18:31.026Z,49.40
2019-02-17T06:21:01.547Z,46.53
2019-02-17T06:23:32.066Z,50.80
2019-02-17T06:26:02.709Z,48.67
2019-02-17T06:28:33.292Z,42.13
2019-02-17T06:31:13.742Z,45.73
2019-02-17T06:33:36.156Z,41.17
2019-02-17T06:36:09.564Z,32.93
2019-02-17T06:38:40.135Z,42.13
2019-02-17T06:41:10.755Z,34.57
2019-02-17T06:43:41.278Z,30.70
2019-02-17T06:46:14.580Z,34.90
2019-02-17T06:48:45.178Z,31.03
2019-02-17T06:51:15.805Z,35.20
2019-02-17T06:53:46.432Z,29.50
2019-02-17T06:56:25.489Z,29.53
2019-02-17T06:58:56.158Z,38.58
2019-02-17T07:01:26.742Z,32.13
2019-02-17T07:03:57.550Z,33.37
2019-02-17T07:06:49.943Z,31.60
2019-02-17T07:09:20.495Z,26.20
2019-02-17T07:11:51.054Z,26.33
2019-02-17T07:14:22.430Z,30.83
2019-02-17T07:16:53.116Z,29.93
2019-02-17T07:19:23.658Z,27.20
2019-02-17T07:21:54.309Z,25.10
2019-02-17T07:24:24.878Z,27.07
2019-02-17T07:26:55.432Z,23.40
2019-02-17T07:29:26.102Z,23.90
2019-02-17T07:31:56.649Z,27.80
2019-02-17T07:34:27.204Z,26.57
2019-02-17T07:36:57.736Z,27.90
2019-02-17T07:39:28.282Z,22.97
2019-02-17T07:42:01.694Z,27.03
2019-02-17T07:44:32.255Z,23.17
2019-02-17T07:47:03.420Z,22.27
2019-02-17T07:49:34.969Z,23.43
2019-02-17T07:52:05.630Z,30.40
2019-02-17T07:54:37.642Z,26.10
2019-02-17T07:57:10.059Z,28.87
2019-02-17T07:59:45.834Z,26.77
2019-02-17T08:02:22.328Z,23.27
2019-02-17T08:04:54.522Z,23.43
2019-02-17T08:07:28.666Z,27.20
2019-02-17T08:10:00.727Z,25.07
2019-02-17T08:12:31.636Z,25.27
2019-02-17T08:15:02.144Z,22.73
2019-02-17T08:17:32.675Z,23.17
2019-02-17T08:20:03.372Z,25.80
2019-02-17T08:22:33.992Z,22.13
2019-02-17T08:25:05.656Z,22.90
2019-02-17T08:27:36.551Z,22.87
2019-02-17T08:30:08.284Z,21.70
2019-02-17T08:32:39.576Z,22.33
2019-02-17T08:35:10.496Z,26.70
2019-02-17T08:37:41.069Z,25.97
2019-02-17T08:40:11.656Z,27.73
2019-02-17T08:42:42.226Z,24.13
2019-02-17T08:45:15.561Z,21.40
2019-02-17T08:47:46.092Z,26.30
2019-02-17T08:50:16.659Z,24.77
2019-02-17T08:52:47.232Z,24.03
2019-02-17T08:55:21.168Z,22.47
2019-02-17T08:57:51.675Z,25.43
2019-02-17T09:00:22.242Z,20.80
2019-02-17T09:02:52.811Z,37.13
2019-02-17T09:05:23.366Z,29.70
2019-02-17T09:07:53.863Z,27.00
2019-02-17T09:10:24.421Z,27.27
2019-02-17T09:12:57.743Z,27.43
2019-02-17T09:15:28.288Z,23.77
2019-02-17T09:17:58.836Z,18.67
2019-02-17T09:20:29.396Z,22.53
2019-02-17T09:22:59.957Z,24.77
2019-02-17T09:25:30.474Z,25.03
2019-02-17T09:28:01.015Z,26.73
2019-02-17T09:30:32.540Z,28.43
2019-02-17T09:33:03.087Z,24.20
2019-02-17T09:35:33.651Z,23.77
2019-02-17T09:38:04.245Z,27.50
2019-02-17T09:40:34.775Z,22.37
2019-02-17T09:43:05.526Z,18.97
2019-02-17T09:45:36.081Z,21.00
2019-02-17T09:48:06.612Z,23.33
2019-02-17T09:50:37.218Z,21.77
2019-02-17T09:53:07.754Z,23.73
2019-02-17T09:55:38.983Z,19.70
2019-02-17T09:58:13.408Z,19.30
2019-02-17T10:00:43.947Z,18.13
2019-02-17T10:03:14.780Z,24.27
2019-02-17T10:05:45.406Z,20.00
2019-02-17T10:08:15.930Z,19.47
2019-02-17T10:10:46.472Z,21.83
2019-02-17T10:13:17.028Z,23.80
2019-02-17T10:15:47.616Z,19.90
2019-02-17T10:18:18.282Z,20.23
2019-02-17T10:20:48.791Z,19.20
2019-02-17T10:23:19.382Z,17.53
2019-02-17T10:25:49.959Z,17.57
2019-02-17T10:28:20.515Z,16.80
2019-02-17T10:30:51.499Z,18.60
2019-02-17T10:33:22.530Z,13.53
2019-02-17T10:35:53.055Z,13.77
2019-02-17T10:38:23.616Z,15.50
2019-02-17T10:40:54.119Z,17.40
2019-02-17T10:43:24.628Z,17.40
2019-02-17T10:45:55.204Z,14.97
2019-02-17T10:48:26.067Z,14.23
2019-02-17T10:50:56.569Z,15.23
2019-02-17T10:53:27.119Z,15.40
2019-02-17T10:55:57.656Z,13.80
2019-02-17T10:58:28.198Z,17.67
2019-02-17T11:01:01.004Z,16.90
2019-02-17T11:03:31.582Z,16.80
2019-02-17T11:06:04.256Z,17.23
2019-02-17T11:08:34.768Z,13.97
2019-02-17T11:11:05.351Z,14.87
2019-02-17T11:13:38.543Z,14.43
2019-02-17T11:16:09.082Z,12.23
2019-02-17T11:18:39.612Z,11.33
2019-02-17T11:21:10.155Z,14.07
2019-02-17T11:23:40.702Z,16.80
2019-02-17T11:26:11.307Z,13.23
2019-02-17T11:28:42.232Z,13.43
2019-02-17T11:31:12.787Z,14.43
2019-02-17T11:33:43.345Z,13.20
2019-02-17T11:36:13.941Z,16.83
2019-02-17T11:38:44.540Z,13.23
2019-02-17T11:41:15.171Z,17.47
2019-02-17T11:43:45.777Z,12.57
2019-02-17T11:46:16.339Z,14.40
2019-02-17T11:48:47.000Z,14.07
2019-02-17T11:51:17.537Z,10.13
2019-02-17T11:53:48.098Z,13.33
2019-02-17T11:56:18.623Z,11.97
2019-02-17T11:58:49.218Z,12.37
2019-02-17T12:01:38.855Z,16.20
2019-02-17T12:04:09.499Z,12.43
2019-02-17T12:06:40.131Z,12.97
2019-02-17T12:09:11.923Z,10.07
2019-02-17T12:11:42.474Z,7.63
2019-02-17T12:14:13.041Z,7.60
2019-02-17T12:16:43.599Z,9.60
2019-02-17T12:19:14.180Z,5.70
2019-02-17T12:21:58.450Z,10.37
2019-02-17T12:25:02.491Z,8.47
2019-02-17T12:27:52.457Z,6.60
2019-02-17T12:30:24.501Z,7.47
2019-02-17T12:32:55.213Z,5.17
2019-02-17T12:35:25.727Z,6.20
2019-02-17T12:37:56.240Z,5.53
2019-02-17T12:40:26.786Z,6.10
2019-02-17T12:42:57.783Z,5.90
2019-02-17T12:45:28.777Z,6.57
2019-02-17T12:47:59.296Z,4.53
2019-02-17T12:50:29.852Z,7.13
2019-02-17T12:53:00.356Z,6.73
2019-02-17T12:55:30.903Z,5.63
2019-02-17T12:58:01.825Z,6.40
2019-02-17T13:00:32.464Z,4.43
2019-02-17T13:03:03.000Z,3.97
2019-02-17T13:05:33.703Z,6.40
2019-02-17T13:08:04.255Z,6.00
2019-02-17T13:10:34.779Z,3.93
2019-02-17T13:13:05.414Z,3.97
2019-02-17T13:15:35.960Z,27.30
2019-02-17T13:18:06.479Z,7.20
2019-02-17T13:20:37.025Z,37.17
2019-02-17T13:23:07.583Z,42.27
2019-02-17T13:25:38.440Z,31.63
2019-02-17T13:28:09.143Z,11.17
2019-02-17T13:30:39.648Z,4.37
2019-02-17T13:33:10.227Z,18.40
2019-02-17T13:35:40.770Z,8.03
2019-02-17T13:38:11.336Z,4.40
2019-02-17T13:40:41.885Z,5.87
2019-02-17T13:43:12.400Z,5.57
2019-02-17T13:45:44.779Z,8.33
2019-02-17T13:48:15.453Z,4.20
2019-02-17T13:50:51.812Z,5.13
2019-02-17T13:53:22.487Z,3.87
2019-02-17T13:55:52.987Z,5.07
2019-02-17T13:58:23.523Z,5.67
2019-02-17T14:00:54.028Z,5.67
2019-02-17T14:03:24.573Z,6.83
2019-02-17T14:05:55.131Z,5.20
2019-02-17T14:08:26.706Z,7.47
2019-02-17T14:10:57.412Z,6.07
2019-02-17T14:13:28.427Z,4.77
2019-02-17T14:15:59.864Z,4.73
2019-02-17T14:18:30.821Z,4.70
2019-02-17T14:21:01.337Z,5.07
2019-02-17T14:23:32.208Z,6.20
2019-02-17T14:26:02.723Z,4.03
2019-02-17T14:28:33.279Z,4.97
2019-02-17T14:31:03.799Z,7.13
2019-02-17T14:33:34.336Z,4.10
2019-02-17T14:36:04.875Z,4.97
2019-02-17T14:38:35.735Z,5.83
2019-02-17T14:41:06.284Z,5.87
2019-02-17T14:43:36.822Z,5.93
2019-02-17T14:46:07.470Z,7.50
2019-02-17T14:48:38.472Z,4.90
2019-02-17T14:51:09.009Z,5.63
2019-02-17T14:53:39.563Z,10.43
2019-02-17T14:56:10.466Z,8.20
2019-02-17T14:58:41.011Z,5.90
2019-02-17T15:01:11.540Z,4.97
2019-02-17T15:03:42.059Z,5.73
2019-02-17T15:06:12.751Z,8.37
2019-02-17T15:08:44.646Z,6.67
2019-02-17T15:11:15.188Z,6.03
2019-02-17T15:13:45.732Z,4.40
2019-02-17T15:16:16.372Z,7.33
2019-02-17T15:18:47.458Z,11.30
2019-02-17T15:21:18.138Z,7.07
2019-02-17T15:23:48.687Z,4.43
2019-02-17T15:26:19.245Z,5.33
2019-02-17T15:28:51.387Z,5.67
2019-02-17T15:31:22.159Z,4.73
2019-02-17T15:33:53.040Z,7.20
2019-02-17T15:36:23.547Z,17.23
2019-02-17T15:38:54.097Z,7.17
2019-02-17T15:41:24.609Z,5.37
2019-02-17T15:43:55.167Z,7.20
2019-02-17T15:46:25.691Z,5.50
2019-02-17T15:48:58.763Z,8.70
2019-02-17T15:51:29.327Z,5.93
2019-02-17T15:53:59.892Z,5.20
2019-02-17T15:56:30.412Z,6.00
2019-02-17T15:59:00.963Z,3.73
2019-02-17T16:01:31.471Z,7.27
2019-02-17T16:04:02.018Z,7.40
2019-02-17T16:06:32.604Z,6.50
2019-02-17T16:09:04.292Z,5.50
2019-02-17T16:11:34.870Z,6.90
2019-02-17T16:14:05.454Z,12.47
2019-02-17T16:16:35.984Z,12.20
2019-02-17T16:19:06.523Z,16.17
2019-02-17T16:21:37.033Z,7.37
2019-02-17T16:24:09.160Z,7.40
2019-02-17T16:26:39.652Z,8.70
2019-02-17T16:29:10.200Z,5.90
2019-02-17T16:31:40.868Z,6.87
2019-02-17T16:34:11.791Z,6.53
2019-02-17T16:36:42.443Z,7.97
2019-02-17T16:39:13.516Z,9.67
2019-02-17T16:41:44.535Z,6.67
2019-02-17T16:44:15.094Z,7.63
2019-02-17T16:46:45.592Z,11.47
2019-02-17T16:49:16.139Z,9.93
2019-02-17T16:51:48.267Z,7.87
2019-02-17T16:54:18.782Z,7.97
2019-02-17T16:56:49.307Z,8.73
2019-02-17T16:59:20.728Z,14.10
2019-02-17T17:01:51.228Z,5.57
2019-02-17T17:04:21.765Z,7.67
2019-02-17T17:06:52.295Z,6.10
2019-02-17T17:09:22.824Z,3.93
2019-02-17T17:11:53.591Z,4.10
2019-02-17T17:14:24.109Z,5.77
2019-02-17T17:16:54.633Z,11.90
2019-02-17T17:19:25.149Z,7.63
2019-02-17T17:21:55.687Z,6.57
2019-02-17T17:24:26.214Z,12.37
2019-02-17T17:26:56.719Z,11.30
2019-02-17T17:29:27.277Z,15.50
2019-02-17T17:31:57.803Z,9.30
2019-02-17T17:34:28.368Z,5.53
2019-02-17T17:36:58.884Z,16.93
2019-02-17T17:39:29.389Z,12.67
2019-02-17T17:42:00.306Z,11.27
2019-02-17T17:44:30.876Z,12.00
2019-02-17T17:47:01.365Z,7.77
2019-02-17T17:49:31.911Z,7.77
2019-02-17T17:52:02.419Z,8.53
2019-02-17T17:54:32.957Z,7.93
2019-02-17T17:57:06.373Z,7.53
2019-02-17T17:59:37.216Z,7.33
2019-02-17T18:02:07.819Z,6.47
2019-02-17T18:04:40.354Z,8.67
2019-02-17T18:07:23.535Z,10.87
2019-02-17T18:09:56.365Z,6.40
2019-02-17T18:12:28.444Z,12.70
2019-02-17T18:14:58.996Z,23.63
2019-02-17T18:17:29.676Z,8.93
2019-02-17T18:20:03.073Z,7.37
2019-02-17T18:22:48.346Z,8.13
2019-02-17T18:25:14.222Z,9.50
2019-02-17T18:27:44.942Z,6.80
2019-02-17T18:30:16.723Z,8.30
2019-02-17T18:32:48.028Z,9.80
2019-02-17T18:35:20.527Z,10.07
2019-02-17T18:37:54.318Z,20.70
2019-02-17T18:40:26.910Z,16.87
2019-02-17T18:42:58.531Z,14.57
2019-02-17T18:45:29.125Z,25.57
2019-02-17T18:47:59.736Z,10.40
2019-02-17T18:50:30.300Z,11.60
2019-02-17T18:53:00.823Z,12.80
2019-02-17T18:55:31.405Z,15.23
2019-02-17T18:58:01.980Z,54.70
2019-02-17T19:00:33.930Z,51.83
2019-02-17T19:03:05.394Z,35.20
2019-02-17T19:05:36.015Z,26.80
2019-02-17T19:08:07.002Z,13.97
2019-02-17T19:10:37.516Z,15.93
2019-02-17T19:13:08.602Z,18.07
2019-02-17T19:15:39.175Z,12.30
2019-02-17T19:18:09.766Z,30.10
2019-02-17T19:20:40.518Z,13.67
2019-02-17T19:23:11.126Z,19.27
2019-02-17T19:25:41.643Z,11.80
2019-02-17T19:28:12.313Z,13.27
2019-02-17T19:30:42.765Z,19.87
2019-02-17T19:33:13.335Z,21.40
2019-02-17T19:35:43.897Z,14.57
2019-02-17T19:38:14.475Z,20.77
2019-02-17T19:40:45.020Z,27.47
2019-02-17T19:43:15.559Z,19.30
2019-02-17T19:45:48.792Z,29.37
2019-02-17T19:48:19.311Z,16.93
2019-02-17T19:50:49.815Z,44.80
2019-02-17T19:53:20.390Z,65.17
2019-02-17T19:55:51.032Z,14.97
2019-02-17T19:58:21.604Z,10.27
2019-02-17T20:00:52.755Z,15.40
2019-02-17T20:03:38.240Z,21.47
2019-02-17T20:06:08.907Z,20.90
2019-02-17T20:08:39.457Z,27.83
2019-02-17T20:11:10.082Z,14.63
2019-02-17T20:13:42.366Z,16.60
2019-02-17T20:16:13.013Z,19.77
2019-02-17T20:18:43.906Z,33.60
2019-02-17T20:21:14.436Z,22.93
2019-02-17T20:23:45.015Z,25.03
2019-02-17T20:26:15.668Z,17.93
2019-02-17T20:28:46.187Z,27.17
2019-02-17T20:31:17.353Z,29.97
2019-02-17T20:33:47.933Z,23.77
2019-02-17T20:36:18.464Z,19.03
2019-02-17T20:38:49.014Z,13.10
2019-02-17T20:41:19.567Z,15.10
2019-02-17T20:43:50.204Z,16.40
2019-02-17T20:46:20.711Z,12.40
2019-02-17T20:48:52.429Z,8.13
2019-02-17T20:51:23.601Z,7.60
2019-02-17T20:53:54.676Z,6.00
2019-02-17T20:56:25.244Z,6.07
2019-02-17T20:58:55.958Z,5.83
2019-02-17T21:01:26.968Z,12.40
2019-02-17T21:03:57.941Z,6.03
2019-02-17T21:06:28.681Z,7.80
2019-02-17T21:08:59.208Z,5.70
2019-02-17T21:11:29.752Z,5.80
2019-02-17T21:14:00.350Z,5.40
2019-02-17T21:16:31.568Z,5.23
2019-02-17T21:19:02.118Z,8.27
2019-02-17T21:21:33.313Z,5.97
2019-02-17T21:24:03.868Z,6.63
2019-02-17T21:26:34.462Z,14.37
2019-02-17T21:29:05.011Z,9.13
2019-02-17T21:31:35.594Z,9.57
2019-02-17T21:34:06.155Z,8.13
2019-02-17T21:36:36.736Z,9.63
2019-02-17T21:39:07.662Z,7.20
2019-02-17T21:41:38.191Z,8.97
2019-02-17T21:44:08.734Z,8.33
2019-02-17T21:46:39.311Z,6.13
2019-02-17T21:49:09.810Z,7.73
2019-02-17T21:51:40.394Z,10.43
2019-02-17T21:54:11.132Z,9.00
2019-02-17T21:56:41.661Z,6.73
2019-02-17T21:59:12.243Z,9.70
2019-02-17T22:01:42.808Z,9.40
2019-02-17T22:04:13.557Z,10.63
2019-02-17T22:06:44.125Z,9.20
2019-02-17T22:09:14.665Z,7.50
2019-02-17T22:11:45.223Z,8.83
2019-02-17T22:14:15.802Z,11.07
2019-02-17T22:16:46.367Z,10.47
2019-02-17T22:19:16.872Z,11.40
2019-02-17T22:21:47.393Z,8.33
2019-02-17T22:24:17.924Z,8.77
2019-02-17T22:26:48.516Z,5.30
2019-02-17T22:29:19.039Z,9.93
2019-02-17T22:31:49.630Z,10.33
2019-02-17T22:34:20.123Z,9.67
2019-02-17T22:36:50.651Z,9.43
2019-02-17T22:39:21.207Z,9.80
2019-02-17T22:41:52.073Z,9.00
2019-02-17T22:44:22.660Z,11.37
2019-02-17T22:46:53.178Z,8.30
2019-02-17T22:49:23.737Z,13.80
2019-02-17T22:51:55.220Z,10.53
2019-02-17T22:54:25.847Z,9.73
2019-02-17T22:56:56.403Z,8.83
2019-02-17T22:59:26.935Z,9.83
2019-02-17T23:01:57.452Z,10.67
2019-02-17T23:04:27.988Z,11.07
2019-02-17T23:06:58.514Z,8.80
2019-02-17T23:09:29.158Z,7.90
2019-02-17T23:11:59.695Z,9.30
2019-02-17T23:14:30.358Z,8.97
2019-02-17T23:17:00.913Z,9.47
2019-02-17T23:19:31.515Z,9.90
2019-02-17T23:22:02.467Z,9.57
2019-02-17T23:24:33.233Z,8.07
2019-02-17T23:27:04.206Z,10.27
2019-02-17T23:29:34.814Z,8.17
2019-02-17T23:32:05.391Z,12.57
2019-02-17T23:34:35.957Z,12.00
2019-02-17T23:37:06.511Z,10.03
2019-02-17T23:39:37.019Z,10.87
2019-02-17T23:42:07.586Z,9.87
2019-02-17T23:44:41.254Z,10.43
2019-02-17T23:47:11.858Z,12.60
2019-02-17T23:49:42.389Z,9.27
2019-02-17T23:52:12.911Z,7.90
2019-02-17T23:54:43.444Z,11.00
2019-02-17T23:57:13.988Z,13.80
2019-02-17T23:59:44.573Z,14.63
